Time;durP1;ratioP1;P1;durP2;ratioP2;P2;SDS_P1;SDS_P2;PMS_P1;PMS_P2;Temp;Humidity;BMP_temperature;BMP_pressure;BME280_temperature;BME280_humidity;BME280_pressure;Samples;Min_cycle;Max_cycle;Signal;HPM_P1;HPM_P2
2023/12/18 00:00:13;;;;;;;;;;;22.30;33.80;;;;;;5013794;28;20264;-57
2023/12/18 00:02:40;;;;;;;;;;;22.30;33.80;;;;;;5013705;28;19926;-56
2023/12/18 00:05:08;;;;;;;;;;;22.30;33.80;;;;;;5013643;28;20012;-56
2023/12/18 00:07:35;;;;;;;;;;;22.30;33.80;;;;;;5013722;28;20371;-56
2023/12/18 00:10:02;;;;;;;;;;;22.30;33.80;;;;;;5013499;28;19932;-57
2023/12/18 00:12:29;;;;;;;;;;;22.30;33.80;;;;;;5013418;28;19995;-56
2023/12/18 00:14:56;;;;;;;;;;;22.30;33.80;;;;;;5013408;28;19980;-57
2023/12/18 00:17:23;;;;;;;;;;;22.30;33.80;;;;;;5013681;28;19926;-57
2023/12/18 00:19:51;;;;;;;;;;;22.20;33.70;;;;;;5013547;28;19952;-57
2023/12/18 00:22:18;;;;;;;;;;;22.30;33.80;;;;;;5013229;28;19980;-57
2023/12/18 00:24:45;;;;;;;;;;;22.30;33.80;;;;;;5013247;28;20307;-57
2023/12/18 00:27:12;;;;;;;;;;;22.30;33.80;;;;;;5013429;28;20442;-57
2023/12/18 00:29:39;;;;;;;;;;;22.30;33.80;;;;;;5015812;28;20017;-57
2023/12/18 00:32:06;;;;;;;;;;;22.30;33.80;;;;;;5017015;28;20025;-58
2023/12/18 00:34:33;;;;;;;;;;;22.30;33.80;;;;;;5017008;28;19973;-57
2023/12/18 00:37:00;;;;;;;;;;;22.30;33.80;;;;;;5016861;28;19982;-57
2023/12/18 00:39:27;;;;;;;;;;;22.20;33.70;;;;;;5017288;28;20346;-56
2023/12/18 00:41:55;;;;;;;;;;;22.20;33.70;;;;;;5016837;28;20446;-57
2023/12/18 00:44:21;;;;;;;;;;;22.30;33.80;;;;;;5016891;28;20343;-57
2023/12/18 00:46:48;;;;;;;;;;;22.20;33.80;;;;;;4999273;28;19980;-57
2023/12/18 00:49:16;;;;;;;;;;;22.30;33.80;;;;;;5016921;28;20310;-57
2023/12/18 00:51:43;;;;;;;;;;;22.30;33.80;;;;;;5017085;28;19926;-55
2023/12/18 00:54:11;;;;;;;;;;;22.30;33.90;;;;;;5016800;28;19926;-57
2023/12/18 00:56:38;;;;;;;;;;;22.30;33.80;;;;;;5016910;28;19925;-57
2023/12/18 00:59:05;;;;;;;;;;;22.20;33.80;;;;;;5016570;28;20399;-56
2023/12/18 01:01:32;;;;;;;;;;;22.20;33.80;;;;;;5016990;28;20330;-57
2023/12/18 01:04:00;;;;;;;;;;;22.20;33.80;;;;;;5016516;28;19926;-58
2023/12/18 01:06:27;;;;;;;;;;;22.20;33.90;;;;;;5016256;28;20399;-57
2023/12/18 01:08:54;;;;;;;;;;;22.20;33.90;;;;;;5016612;28;19980;-57
2023/12/18 01:11:20;;;;;;;;;;;22.20;33.90;;;;;;5016502;28;19956;-57
2023/12/18 01:13:48;;;;;;;;;;;22.20;33.80;;;;;;5016147;28;20387;-56
2023/12/18 01:16:15;;;;;;;;;;;22.20;33.80;;;;;;5016175;28;20462;-57
2023/12/18 01:18:42;;;;;;;;;;;22.20;33.80;;;;;;5016431;28;19996;-57
2023/12/18 01:21:09;;;;;;;;;;;22.20;33.80;;;;;;5015905;28;19980;-57
2023/12/18 01:23:36;;;;;;;;;;;22.20;33.80;;;;;;5015858;28;19926;-58
2023/12/18 01:26:03;;;;;;;;;;;22.20;33.80;;;;;;5016549;28;20327;-59
2023/12/18 01:28:30;;;;;;;;;;;22.20;33.80;;;;;;5015960;28;19926;-56
2023/12/18 01:30:57;;;;;;;;;;;22.20;33.80;;;;;;5016224;28;20383;-56
2023/12/18 01:33:24;;;;;;;;;;;22.20;33.80;;;;;;5016169;28;19925;-56
2023/12/18 01:35:52;;;;;;;;;;;22.20;33.80;;;;;;5015664;28;20343;-58
2023/12/18 01:38:19;;;;;;;;;;;22.10;33.80;;;;;;5015794;28;20377;-58
2023/12/18 01:40:46;;;;;;;;;;;22.20;33.80;;;;;;5014824;28;19926;-57
2023/12/18 01:43:24;;;;;;;;;;;22.20;33.80;;;;;;5016098;28;19964;-57
2023/12/18 01:45:55;;;;;;;;;;;22.20;33.90;;;;;;5015597;28;19926;-57
2023/12/18 01:48:22;;;;;;;;;;;22.20;33.90;;;;;;5015759;28;19934;-57
2023/12/18 01:50:49;;;;;;;;;;;22.20;33.90;;;;;;5015750;28;19925;-57
2023/12/18 01:53:17;;;;;;;;;;;22.10;33.80;;;;;;5015592;28;20406;-57
2023/12/18 01:55:44;;;;;;;;;;;22.10;33.80;;;;;;5015830;28;20334;-58
2023/12/18 01:58:12;;;;;;;;;;;22.10;33.80;;;;;;5015640;28;20363;-58
2023/12/18 02:00:40;;;;;;;;;;;22.10;33.90;;;;;;5015666;28;19977;-57
2023/12/18 02:03:09;;;;;;;;;;;22.10;33.90;;;;;;5015379;28;19930;-56
2023/12/18 02:05:37;;;;;;;;;;;22.20;33.90;;;;;;4997925;28;19925;-57
2023/12/18 02:08:05;;;;;;;;;;;22.10;33.90;;;;;;5015448;28;20347;-57
2023/12/18 02:10:34;;;;;;;;;;;22.10;33.90;;;;;;5015150;28;19925;-57
2023/12/18 02:13:01;;;;;;;;;;;22.10;33.90;;;;;;5015254;28;19933;-57
2023/12/18 02:15:27;;;;;;;;;;;22.10;33.90;;;;;;5014977;28;20437;-57
2023/12/18 02:17:55;;;;;;;;;;;22.10;33.90;;;;;;5015157;28;20012;-57
2023/12/18 02:20:22;;;;;;;;;;;22.10;33.90;;;;;;5017680;28;20299;-56
2023/12/18 02:22:50;;;;;;;;;;;22.10;33.90;;;;;;5034641;28;20441;-57
2023/12/18 02:25:17;;;;;;;;;;;22.10;33.80;;;;;;5034931;28;19994;-58
2023/12/18 02:27:45;;;;;;;;;;;22.10;33.90;;;;;;5034752;28;19925;-57
2023/12/18 02:30:16;;;;;;;;;;;22.00;33.80;;;;;;5034889;28;19925;-57
2023/12/18 02:32:43;;;;;;;;;;;22.10;33.90;;;;;;5017061;28;19955;-57
2023/12/18 02:35:11;;;;;;;;;;;22.10;33.90;;;;;;5034731;28;20333;-57
2023/12/18 02:37:38;;;;;;;;;;;22.10;33.90;;;;;;5034677;28;20373;-57
2023/12/18 02:40:06;;;;;;;;;;;22.10;33.90;;;;;;5034523;28;19931;-56
2023/12/18 02:42:32;;;;;;;;;;;22.10;33.90;;;;;;5033419;28;20367;-57
2023/12/18 02:45:00;;;;;;;;;;;22.10;33.90;;;;;;5014763;28;20326;-56
2023/12/18 02:47:28;;;;;;;;;;;22.10;33.90;;;;;;5027627;28;19929;-58
2023/12/18 02:49:55;;;;;;;;;;;22.10;33.90;;;;;;5034381;28;20290;-56
2023/12/18 02:52:22;;;;;;;;;;;22.10;33.90;;;;;;5034299;28;19929;-56
2023/12/18 02:54:49;;;;;;;;;;;22.10;33.90;;;;;;5034144;28;20394;-57
2023/12/18 02:57:16;;;;;;;;;;;22.10;33.90;;;;;;5033929;28;19924;-57
2023/12/18 02:59:43;;;;;;;;;;;22.10;33.90;;;;;;5034129;28;19951;-56
2023/12/18 03:02:10;;;;;;;;;;;22.00;33.90;;;;;;5034111;28;19971;-56
2023/12/18 03:04:40;;;;;;;;;;;22.00;33.90;;;;;;5033203;28;20338;-56
2023/12/18 03:07:11;;;;;;;;;;;22.00;33.90;;;;;;5014454;28;19925;-57
2023/12/18 03:09:38;;;;;;;;;;;22.00;33.90;;;;;;5014041;28;19996;-57
2023/12/18 03:12:05;;;;;;;;;;;22.00;33.90;;;;;;5014514;28;19972;-57
2023/12/18 03:14:32;;;;;;;;;;;22.00;33.90;;;;;;4996668;28;19969;-57
2023/12/18 03:16:59;;;;;;;;;;;22.00;33.90;;;;;;5014327;28;19925;-56
2023/12/18 03:19:26;;;;;;;;;;;22.00;33.90;;;;;;5013753;28;19976;-58
2023/12/18 03:21:53;;;;;;;;;;;22.00;33.80;;;;;;5014384;28;19995;-57
2023/12/18 03:24:20;;;;;;;;;;;22.00;34.00;;;;;;5013770;28;19925;-57
2023/12/18 03:26:49;;;;;;;;;;;22.00;33.80;;;;;;4997121;28;19932;-57
2023/12/18 03:29:16;;;;;;;;;;;22.00;34.00;;;;;;5013538;28;20399;-57
2023/12/18 03:31:43;;;;;;;;;;;22.00;33.80;;;;;;5014190;28;19926;-57
2023/12/18 03:34:10;;;;;;;;;;;22.00;33.90;;;;;;5014299;28;19925;-58
2023/12/18 03:36:37;;;;;;;;;;;22.00;33.90;;;;;;5014213;28;19987;-56
2023/12/18 03:39:05;;;;;;;;;;;22.00;33.90;;;;;;5014013;28;20016;-55
2023/12/18 03:41:32;;;;;;;;;;;22.00;33.90;;;;;;5014079;28;19933;-61
2023/12/18 03:43:59;;;;;;;;;;;22.00;33.90;;;;;;5013662;28;19983;-58
2023/12/18 03:46:25;;;;;;;;;;;22.00;33.90;;;;;;5013952;28;19977;-61
2023/12/18 03:48:53;;;;;;;;;;;22.00;33.90;;;;;;5013582;28;19926;-62
2023/12/18 03:51:20;;;;;;;;;;;22.00;33.90;;;;;;5013357;28;19926;-58
2023/12/18 03:53:47;;;;;;;;;;;22.00;33.90;;;;;;4996645;28;20325;-63
2023/12/18 03:56:14;;;;;;;;;;;22.00;33.90;;;;;;5013471;28;20382;-58
2023/12/18 03:58:41;;;;;;;;;;;22.00;33.90;;;;;;5013708;28;19925;-61
2023/12/18 04:01:08;;;;;;;;;;;22.00;34.00;;;;;;5013417;28;20387;-61
2023/12/18 04:03:35;;;;;;;;;;;22.00;34.00;;;;;;4997084;28;20383;-58
2023/12/18 04:06:06;;;;;;;;;;;22.00;34.00;;;;;;5017855;28;19925;-63
2023/12/18 04:08:33;;;;;;;;;;;21.90;34.00;;;;;;5017803;28;19925;-61
2023/12/18 04:11:00;;;;;;;;;;;21.90;34.00;;;;;;5017171;28;19926;-62
2023/12/18 04:13:27;;;;;;;;;;;21.90;33.90;;;;;;5017722;28;19999;-59
2023/12/18 04:15:54;;;;;;;;;;;21.90;34.00;;;;;;5017386;28;20461;-58
2023/12/18 04:18:25;;;;;;;;;;;21.90;33.90;;;;;;5017443;28;20339;-58
2023/12/18 04:20:52;;;;;;;;;;;21.90;33.90;;;;;;5017548;28;19933;-61
2023/12/18 04:23:19;;;;;;;;;;;21.90;33.90;;;;;;5016905;28;19930;-62
2023/12/18 04:25:47;;;;;;;;;;;22.00;34.00;;;;;;5017408;28;20020;-59
2023/12/18 04:28:14;;;;;;;;;;;22.00;33.90;;;;;;5017488;28;20294;-58
2023/12/18 04:30:41;;;;;;;;;;;21.90;33.90;;;;;;5016952;28;20438;-56
2023/12/18 04:33:08;;;;;;;;;;;21.90;33.90;;;;;;5017474;28;19926;-57
2023/12/18 04:35:35;;;;;;;;;;;21.90;33.90;;;;;;5017201;28;19925;-57
2023/12/18 04:38:02;;;;;;;;;;;21.90;33.90;;;;;;5017122;28;20068;-57
2023/12/18 04:40:29;;;;;;;;;;;22.00;33.80;;;;;;5016911;28;20421;-56
2023/12/18 04:42:56;;;;;;;;;;;22.00;33.50;;;;;;5016911;28;19980;-57
2023/12/18 04:45:23;;;;;;;;;;;22.10;33.30;;;;;;5030158;28;19932;-56
2023/12/18 04:47:50;;;;;;;;;;;22.20;33.00;;;;;;5036911;28;20317;-57
2023/12/18 04:50:18;;;;;;;;;;;22.20;32.90;;;;;;5024181;28;19926;-56
2023/12/18 04:52:45;;;;;;;;;;;22.20;32.70;;;;;;5016744;28;20024;-56
2023/12/18 04:55:12;;;;;;;;;;;22.30;32.70;;;;;;5016456;28;20383;-57
2023/12/18 04:57:39;;;;;;;;;;;22.30;32.60;;;;;;5016657;28;19957;-58
2023/12/18 05:00:06;;;;;;;;;;;22.30;32.60;;;;;;5016375;28;19926;-57
2023/12/18 05:02:33;;;;;;;;;;;22.30;32.50;;;;;;5016411;28;20318;-56
2023/12/18 05:05:00;;;;;;;;;;;22.40;32.50;;;;;;5016318;28;19926;-56
2023/12/18 05:07:28;;;;;;;;;;;22.40;32.40;;;;;;5016408;28;19976;-57
2023/12/18 05:09:55;;;;;;;;;;;22.40;32.30;;;;;;5016184;28;19980;-58
2023/12/18 05:12:22;;;;;;;;;;;22.50;32.20;;;;;;5016578;28;19976;-57
2023/12/18 05:14:49;;;;;;;;;;;22.60;32.20;;;;;;5016129;28;19933;-56
2023/12/18 05:17:16;;;;;;;;;;;22.60;32.10;;;;;;5016571;28;19925;-57
2023/12/18 05:19:43;;;;;;;;;;;22.70;32.00;;;;;;5015904;28;19973;-58
2023/12/18 05:22:10;;;;;;;;;;;22.70;31.90;;;;;;5016011;28;20012;-57
2023/12/18 05:24:37;;;;;;;;;;;22.80;31.80;;;;;;5015967;28;19925;-57
2023/12/18 05:27:04;;;;;;;;;;;22.80;31.70;;;;;;5016152;28;19926;-56
2023/12/18 05:29:31;;;;;;;;;;;22.90;31.60;;;;;;5016156;28;19930;-57
2023/12/18 05:31:58;;;;;;;;;;;23.00;31.60;;;;;;5015946;28;19925;-57
2023/12/18 05:34:25;;;;;;;;;;;23.00;31.50;;;;;;5016138;28;19979;-57
2023/12/18 05:36:56;;;;;;;;;;;23.00;31.40;;;;;;5012746;28;19972;-56
2023/12/18 05:39:24;;;;;;;;;;;23.10;31.30;;;;;;4982351;28;19925;-56
2023/12/18 05:41:51;;;;;;;;;;;23.20;31.20;;;;;;5015601;28;20310;-58
2023/12/18 05:44:18;;;;;;;;;;;23.20;31.20;;;;;;5006005;28;19925;-56
2023/12/18 05:46:45;;;;;;;;;;;23.30;31.10;;;;;;4998726;28;19932;-56
2023/12/18 05:49:12;;;;;;;;;;;23.30;31.60;;;;;;5012788;28;19971;-52
2023/12/18 05:51:39;;;;;;;;;;;23.40;31.80;;;;;;4998126;28;19965;-56
2023/12/18 05:54:06;;;;;;;;;;;23.40;31.70;;;;;;5002927;28;19992;-49
2023/12/18 05:56:33;;;;;;;;;;;23.40;31.60;;;;;;4991381;28;19936;-54
2023/12/18 05:59:00;;;;;;;;;;;23.50;31.60;;;;;;5016756;28;20020;-56
2023/12/18 06:01:27;;;;;;;;;;;23.50;31.40;;;;;;5009013;28;20426;-55
2023/12/18 06:03:54;;;;;;;;;;;23.60;31.10;;;;;;5009852;28;19933;-57
2023/12/18 06:06:21;;;;;;;;;;;23.60;31.00;;;;;;4997432;28;19930;-54
2023/12/18 06:08:48;;;;;;;;;;;23.70;30.90;;;;;;4999938;28;19925;-58
2023/12/18 06:11:15;;;;;;;;;;;23.70;30.90;;;;;;4980712;28;20434;-56
2023/12/18 06:13:42;;;;;;;;;;;23.70;30.80;;;;;;5006253;28;19965;-59
2023/12/18 06:16:09;;;;;;;;;;;23.80;30.70;;;;;;5009982;28;19973;-55
2023/12/18 06:18:37;;;;;;;;;;;23.80;31.00;;;;;;5004705;28;19931;-57
2023/12/18 06:21:05;;;;;;;;;;;23.90;30.90;;;;;;5007565;28;19926;-60
2023/12/18 06:23:33;;;;;;;;;;;23.90;30.80;;;;;;5001761;28;19961;-57
2023/12/18 06:26:00;;;;;;;;;;;24.00;30.90;;;;;;4998231;28;20007;-56
2023/12/18 06:28:29;;;;;;;;;;;24.00;30.80;;;;;;4999923;28;19925;-54
2023/12/18 06:30:56;;;;;;;;;;;24.10;30.80;;;;;;4998123;28;19988;-49
2023/12/18 06:33:24;;;;;;;;;;;24.10;30.80;;;;;;4995776;28;20354;-53
2023/12/18 06:35:51;;;;;;;;;;;24.10;30.60;;;;;;4993985;28;19933;-56
2023/12/18 06:38:18;;;;;;;;;;;24.20;30.40;;;;;;4997951;28;19937;-57
2023/12/18 06:40:45;;;;;;;;;;;24.20;30.50;;;;;;5000533;28;19929;-58
2023/12/18 06:43:12;;;;;;;;;;;24.30;30.50;;;;;;5001618;28;19933;-57
2023/12/18 06:45:39;;;;;;;;;;;24.30;30.40;;;;;;5001741;28;19963;-57
2023/12/18 06:48:07;;;;;;;;;;;24.40;30.50;;;;;;5000510;28;20370;-58
2023/12/18 06:50:34;;;;;;;;;;;24.40;30.60;;;;;;4984689;28;20016;-58
2023/12/18 06:53:01;;;;;;;;;;;24.40;30.90;;;;;;5005691;28;20364;-57
2023/12/18 06:55:28;;;;;;;;;;;24.50;30.40;;;;;;4998644;28;19933;-56
2023/12/18 06:57:55;;;;;;;;;;;24.60;30.20;;;;;;4997508;28;20028;-56
2023/12/18 07:00:22;;;;;;;;;;;24.60;30.20;;;;;;4997771;28;19948;-56
2023/12/18 07:03:06;;;;;;;;;;;24.60;30.30;;;;;;4992585;28;21111;-56
2023/12/18 07:05:34;;;;;;;;;;;24.60;30.20;;;;;;4992801;28;19984;-57
2023/12/18 07:08:01;;;;;;;;;;;24.60;30.20;;;;;;4997436;28;19977;-56
2023/12/18 07:10:28;;;;;;;;;;;24.70;30.80;;;;;;5000123;28;19972;-54
2023/12/18 07:12:55;;;;;;;;;;;24.70;30.10;;;;;;4999117;28;20359;-58
2023/12/18 07:15:24;;;;;;;;;;;24.80;30.20;;;;;;4996703;28;19940;-58
2023/12/18 07:17:52;;;;;;;;;;;24.80;30.40;;;;;;4996646;28;19926;-57
2023/12/18 07:20:19;;;;;;;;;;;24.80;30.40;;;;;;4993609;28;19934;-59
2023/12/18 07:22:46;;;;;;;;;;;24.90;30.50;;;;;;4995140;28;19977;-54
2023/12/18 07:25:13;;;;;;;;;;;24.90;30.50;;;;;;4995273;28;20076;-56
2023/12/18 07:27:41;;;;;;;;;;;25.00;30.40;;;;;;4994409;28;19937;-54
2023/12/18 07:30:08;;;;;;;;;;;25.00;30.30;;;;;;4994767;28;19933;-56
2023/12/18 07:32:35;;;;;;;;;;;25.00;30.10;;;;;;4979401;28;20502;-56
2023/12/18 07:35:04;;;;;;;;;;;25.10;30.50;;;;;;4997150;28;20464;-56
2023/12/18 07:37:31;;;;;;;;;;;25.10;30.00;;;;;;4974169;28;19933;-55
2023/12/18 07:39:59;;;;;;;;;;;25.20;30.00;;;;;;4999893;28;20021;-56
2023/12/18 07:42:27;;;;;;;;;;;25.20;30.00;;;;;;5000598;28;20026;-54
2023/12/18 07:44:54;;;;;;;;;;;25.30;30.00;;;;;;5000371;28;20242;-51
2023/12/18 07:47:21;;;;;;;;;;;25.30;30.00;;;;;;4998009;28;19933;-53
2023/12/18 07:49:48;;;;;;;;;;;25.30;30.00;;;;;;5003312;28;19930;-54
2023/12/18 07:52:17;;;;;;;;;;;25.40;30.00;;;;;;4997709;28;19929;-52
2023/12/18 07:54:44;;;;;;;;;;;25.40;30.00;;;;;;5003686;28;20397;-60
2023/12/18 07:57:12;;;;;;;;;;;25.40;29.90;;;;;;4985614;28;19969;-55
2023/12/18 07:59:42;;;;;;;;;;;25.40;30.00;;;;;;4986343;28;20268;-59
2023/12/18 08:02:09;;;;;;;;;;;25.50;30.00;;;;;;5000446;28;19933;-57
2023/12/18 08:04:36;;;;;;;;;;;25.50;30.00;;;;;;4999596;28;20327;-59
2023/12/18 08:07:04;;;;;;;;;;;25.50;29.90;;;;;;5001789;28;19925;-58
2023/12/18 08:09:32;;;;;;;;;;;25.60;30.00;;;;;;4978874;28;19933;-56
2023/12/18 08:12:00;;;;;;;;;;;25.60;30.00;;;;;;5002569;28;20021;-56
2023/12/18 08:14:27;;;;;;;;;;;25.60;29.90;;;;;;4999811;28;20303;-54
2023/12/18 08:16:54;;;;;;;;;;;25.70;29.80;;;;;;4998171;28;19992;-53
2023/12/18 08:19:21;;;;;;;;;;;25.70;29.80;;;;;;4995019;28;19930;-56
2023/12/18 08:21:49;;;;;;;;;;;25.70;29.90;;;;;;5000105;28;19931;-57
2023/12/18 08:24:16;;;;;;;;;;;25.70;29.90;;;;;;4998407;28;19937;-52
2023/12/18 08:26:47;;;;;;;;;;;25.80;30.00;;;;;;4993094;28;19972;-56
2023/12/18 08:29:15;;;;;;;;;;;25.80;29.70;;;;;;5002226;28;19925;-55
2023/12/18 08:31:42;;;;;;;;;;;25.90;29.70;;;;;;5002527;28;19940;-51
2023/12/18 08:34:09;;;;;;;;;;;25.90;29.70;;;;;;5005052;28;19933;-59
2023/12/18 08:36:37;;;;;;;;;;;25.90;29.70;;;;;;5000458;28;19926;-55
2023/12/18 08:39:08;;;;;;;;;;;26.00;29.90;;;;;;5000995;28;21347;-57
2023/12/18 08:41:37;;;;;;;;;;;26.00;29.80;;;;;;4997312;28;19934;-60
2023/12/18 08:44:04;;;;;;;;;;;26.00;30.00;;;;;;5001410;28;19943;-57
2023/12/18 08:46:32;;;;;;;;;;;26.00;30.00;;;;;;4993416;28;20655;-58
2023/12/18 08:48:59;;;;;;;;;;;26.10;29.80;;;;;;5001613;28;19929;-57
2023/12/18 08:51:26;;;;;;;;;;;26.10;29.80;;;;;;4999025;28;20383;-57
2023/12/18 08:53:54;;;;;;;;;;;26.10;29.50;;;;;;5002614;28;19936;-57
2023/12/18 08:56:25;;;;;;;;;;;26.10;29.40;;;;;;5004529;28;19933;-58
2023/12/18 08:58:52;;;;;;;;;;;26.10;29.50;;;;;;4998363;28;19933;-58
2023/12/18 09:01:19;;;;;;;;;;;26.10;29.50;;;;;;4985457;28;20052;-59
2023/12/18 09:03:47;;;;;;;;;;;26.10;29.80;;;;;;4985343;28;19995;-56
2023/12/18 09:06:14;;;;;;;;;;;26.10;29.60;;;;;;5001053;28;19948;-57
2023/12/18 09:08:41;;;;;;;;;;;26.10;29.60;;;;;;5002280;28;20020;-55
2023/12/18 09:11:08;;;;;;;;;;;26.10;29.70;;;;;;5005058;28;20012;-58
2023/12/18 09:13:36;;;;;;;;;;;26.20;29.70;;;;;;4997349;28;19980;-56
2023/12/18 09:16:04;;;;;;;;;;;26.20;29.70;;;;;;5004110;28;19930;-57
2023/12/18 09:18:32;;;;;;;;;;;26.20;29.70;;;;;;5004060;28;19934;-58
2023/12/18 09:20:59;;;;;;;;;;;26.20;29.50;;;;;;5001961;28;19933;-57
2023/12/18 09:23:27;;;;;;;;;;;26.20;29.40;;;;;;5003294;28;20306;-53
2023/12/18 09:25:54;;;;;;;;;;;26.20;29.30;;;;;;5001212;28;20024;-58
2023/12/18 09:28:21;;;;;;;;;;;26.20;29.20;;;;;;5003852;28;19932;-57
2023/12/18 09:30:48;;;;;;;;;;;26.20;29.40;;;;;;5003189;28;20346;-54
2023/12/18 09:33:15;;;;;;;;;;;26.20;29.30;;;;;;4997732;28;19948;-56
2023/12/18 09:35:43;;;;;;;;;;;26.30;29.10;;;;;;5000650;28;19972;-57
2023/12/18 09:38:10;;;;;;;;;;;26.30;29.10;;;;;;4999686;28;19933;-56
2023/12/18 09:40:37;;;;;;;;;;;26.30;29.10;;;;;;5001804;28;19925;-57
2023/12/18 09:43:04;;;;;;;;;;;26.30;29.10;;;;;;5003347;28;19929;-57
2023/12/18 09:45:31;;;;;;;;;;;26.30;29.00;;;;;;5003810;28;19995;-56
2023/12/18 09:47:59;;;;;;;;;;;26.30;29.00;;;;;;5001188;28;19929;-55
2023/12/18 09:50:27;;;;;;;;;;;26.30;29.00;;;;;;5000194;28;19980;-51
2023/12/18 09:53:03;;;;;;;;;;;26.30;29.00;;;;;;4999133;28;19925;-55
2023/12/18 09:55:30;;;;;;;;;;;26.30;29.10;;;;;;5003132;28;19979;-50
2023/12/18 09:57:59;;;;;;;;;;;26.30;29.10;;;;;;4999311;28;19973;-51
2023/12/18 10:00:27;;;;;;;;;;;26.20;28.90;;;;;;5001675;28;19932;-54
2023/12/18 10:02:57;;;;;;;;;;;26.30;28.90;;;;;;5001966;28;20016;-52
2023/12/18 10:05:25;;;;;;;;;;;26.30;28.90;;;;;;4998768;28;19933;-54
2023/12/18 10:07:53;;;;;;;;;;;26.30;28.90;;;;;;5000394;28;19933;-51
2023/12/18 10:10:20;;;;;;;;;;;26.30;28.80;;;;;;5004905;28;19980;-58
2023/12/18 10:12:47;;;;;;;;;;;26.30;28.80;;;;;;4984006;28;19933;-57
2023/12/18 10:15:14;;;;;;;;;;;26.20;28.80;;;;;;5001901;28;20016;-58
2023/12/18 10:17:42;;;;;;;;;;;26.20;28.90;;;;;;5003046;28;20510;-58
2023/12/18 10:20:10;;;;;;;;;;;26.10;29.00;;;;;;5000660;28;20376;-57
2023/12/18 10:22:40;;;;;;;;;;;26.10;29.10;;;;;;5003173;28;20375;-53
2023/12/18 10:25:08;;;;;;;;;;;26.00;29.10;;;;;;4990371;28;20489;-56
2023/12/18 10:27:38;;;;;;;;;;;26.00;29.20;;;;;;5004329;28;19972;-56
2023/12/18 10:30:06;;;;;;;;;;;26.00;29.20;;;;;;5002266;28;19926;-57
2023/12/18 10:32:39;;;;;;;;;;;25.90;29.20;;;;;;4999789;28;20017;-58
2023/12/18 10:35:08;;;;;;;;;;;25.80;29.20;;;;;;5002047;28;19925;-56
2023/12/18 10:37:37;;;;;;;;;;;25.80;29.30;;;;;;5003490;28;19925;-56
2023/12/18 10:40:06;;;;;;;;;;;25.80;29.40;;;;;;4997697;28;19976;-56
2023/12/18 10:42:35;;;;;;;;;;;25.70;29.40;;;;;;5002266;28;19943;-58
2023/12/18 10:45:06;;;;;;;;;;;25.70;29.60;;;;;;5000645;28;19933;-56
2023/12/18 10:47:33;;;;;;;;;;;25.70;29.60;;;;;;4986129;28;20435;-58
2023/12/18 10:50:02;;;;;;;;;;;25.60;29.80;;;;;;4999885;28;20327;-57
2023/12/18 10:52:30;;;;;;;;;;;25.60;29.80;;;;;;4984862;28;19929;-58
2023/12/18 10:54:58;;;;;;;;;;;25.60;29.80;;;;;;5005329;28;20320;-57
2023/12/18 10:57:26;;;;;;;;;;;25.60;29.90;;;;;;5001127;28;20286;-57
2023/12/18 10:59:55;;;;;;;;;;;25.50;29.80;;;;;;5006657;28;19932;-57
2023/12/18 11:02:24;;;;;;;;;;;25.50;29.80;;;;;;5005866;28;20355;-56
2023/12/18 11:04:52;;;;;;;;;;;25.50;29.90;;;;;;5003001;28;20375;-56
2023/12/18 11:07:19;;;;;;;;;;;25.50;29.70;;;;;;5005769;28;19929;-57
2023/12/18 11:09:46;;;;;;;;;;;25.50;29.60;;;;;;5000593;28;20005;-56
2023/12/18 11:12:15;;;;;;;;;;;25.40;29.50;;;;;;4984412;28;20341;-56
2023/12/18 11:15:02;;;;;;;;;;;25.50;29.50;;;;;;4988113;28;20020;-57
2023/12/18 11:17:45;;;;;;;;;;;25.50;29.50;;;;;;4969480;28;19934;-57
2023/12/18 11:20:25;;;;;;;;;;;25.40;29.40;;;;;;4999842;28;19993;-57
2023/12/18 11:22:53;;;;;;;;;;;25.40;29.40;;;;;;4998547;28;19929;-57
2023/12/18 11:25:20;;;;;;;;;;;25.40;29.40;;;;;;5000546;28;19937;-55
2023/12/18 11:27:50;;;;;;;;;;;25.40;29.40;;;;;;5000570;28;19929;-54
2023/12/18 11:30:27;;;;;;;;;;;25.40;29.40;;;;;;4982969;28;20257;-58
2023/12/18 11:32:56;;;;;;;;;;;25.30;29.40;;;;;;4997315;28;20016;-55
2023/12/18 11:35:33;;;;;;;;;;;25.30;29.50;;;;;;5000948;28;20020;-54
2023/12/18 11:38:08;;;;;;;;;;;25.30;29.70;;;;;;5002985;28;19931;-55
2023/12/18 11:40:38;;;;;;;;;;;25.20;29.70;;;;;;4990310;28;19937;-58
2023/12/18 11:43:09;;;;;;;;;;;25.20;29.80;;;;;;5000548;28;19965;-56
2023/12/18 11:45:38;;;;;;;;;;;25.20;29.90;;;;;;4979999;28;20024;-56
2023/12/18 11:48:05;;;;;;;;;;;25.20;29.90;;;;;;5005537;28;20031;-56
2023/12/18 11:50:35;;;;;;;;;;;25.20;30.00;;;;;;5000052;28;19929;-56
2023/12/18 11:53:05;;;;;;;;;;;25.20;30.00;;;;;;4997414;28;19944;-55
2023/12/18 11:55:41;;;;;;;;;;;25.20;30.00;;;;;;4996114;28;19933;-57
2023/12/18 11:58:09;;;;;;;;;;;25.20;30.00;;;;;;5003382;28;19926;-57
2023/12/18 12:00:37;;;;;;;;;;;25.20;30.00;;;;;;4993030;28;19933;-56
2023/12/18 12:03:04;;;;;;;;;;;25.10;30.00;;;;;;4999905;28;20014;-57
2023/12/18 12:05:32;;;;;;;;;;;25.10;30.10;;;;;;4964189;28;20470;-58
2023/12/18 12:07:59;;;;;;;;;;;25.10;30.40;;;;;;4998477;28;19933;-57
2023/12/18 12:10:26;;;;;;;;;;;25.10;30.70;;;;;;5001226;28;20542;-56
2023/12/18 12:12:54;;;;;;;;;;;25.10;31.10;;;;;;5003463;28;19940;-52
2023/12/18 12:15:24;;;;;;;;;;;25.10;31.60;;;;;;4998989;28;20012;-57
2023/12/18 12:17:59;;;;;;;;;;;25.10;31.90;;;;;;4997646;28;19925;-54
2023/12/18 12:20:27;;;;;;;;;;;25.10;31.90;;;;;;4998490;28;19925;-52
2023/12/18 12:22:54;;;;;;;;;;;25.10;31.80;;;;;;4999889;28;20383;-56
2023/12/18 12:25:20;;;;;;;;;;;25.10;31.90;;;;;;4999492;28;19941;-58
2023/12/18 12:27:47;;;;;;;;;;;25.10;31.90;;;;;;5003964;28;19930;-54
2023/12/18 12:30:16;;;;;;;;;;;25.10;32.00;;;;;;5002961;28;19929;-57
2023/12/18 12:32:44;;;;;;;;;;;25.10;31.90;;;;;;5002336;28;20383;-50
2023/12/18 12:35:11;;;;;;;;;;;25.10;32.00;;;;;;5009104;28;19926;-52
2023/12/18 12:37:40;;;;;;;;;;;25.10;32.10;;;;;;5006244;28;19940;-53
2023/12/18 12:40:11;;;;;;;;;;;25.10;32.10;;;;;;5004379;28;19925;-51
2023/12/18 12:42:38;;;;;;;;;;;25.10;32.10;;;;;;4971883;28;19956;-51
2023/12/18 12:45:06;;;;;;;;;;;25.10;32.00;;;;;;4989639;28;19926;-55
2023/12/18 12:47:33;;;;;;;;;;;25.10;31.90;;;;;;5003660;28;20025;-52
2023/12/18 12:50:01;;;;;;;;;;;25.20;31.70;;;;;;5003811;28;20291;-55
2023/12/18 12:52:29;;;;;;;;;;;25.20;31.60;;;;;;5001063;28;20003;-52
2023/12/18 12:54:56;;;;;;;;;;;25.20;31.60;;;;;;5005871;28;19933;-56
2023/12/18 12:57:23;;;;;;;;;;;25.20;31.70;;;;;;5005145;28;19930;-57
2023/12/18 12:59:51;;;;;;;;;;;25.20;31.60;;;;;;5004280;28;19926;-58
2023/12/18 13:02:18;;;;;;;;;;;25.20;31.50;;;;;;5006159;28;19980;-58
2023/12/18 13:04:45;;;;;;;;;;;25.20;31.50;;;;;;4999775;28;19933;-59
2023/12/18 13:07:13;;;;;;;;;;;25.20;31.40;;;;;;4985228;28;19961;-55
2023/12/18 13:09:40;;;;;;;;;;;25.20;31.50;;;;;;5002932;28;19934;-54
2023/12/18 13:12:08;;;;;;;;;;;25.20;31.50;;;;;;5004596;28;19933;-57
2023/12/18 13:14:36;;;;;;;;;;;25.20;31.50;;;;;;5003921;28;19957;-58
2023/12/18 13:17:03;;;;;;;;;;;25.20;31.50;;;;;;5003740;28;19973;-58
2023/12/18 13:19:30;;;;;;;;;;;25.20;31.60;;;;;;5003884;28;20311;-57
2023/12/18 13:21:57;;;;;;;;;;;25.20;31.70;;;;;;5004373;28;19980;-57
2023/12/18 13:24:24;;;;;;;;;;;25.20;31.90;;;;;;5004708;28;19930;-53
2023/12/18 13:26:51;;;;;;;;;;;25.30;32.00;;;;;;4987316;28;19926;-56
2023/12/18 13:29:18;;;;;;;;;;;25.30;32.10;;;;;;5005164;28;19948;-56
2023/12/18 13:31:45;;;;;;;;;;;25.30;32.30;;;;;;5002194;28;20036;-57
2023/12/18 13:34:13;;;;;;;;;;;25.30;32.30;;;;;;5002904;28;19945;-57
2023/12/18 13:36:40;;;;;;;;;;;25.30;32.30;;;;;;5003625;28;19926;-59
2023/12/18 13:39:07;;;;;;;;;;;25.30;32.30;;;;;;5006828;28;20001;-56
2023/12/18 13:41:35;;;;;;;;;;;25.30;32.30;;;;;;5003767;28;19936;-57
2023/12/18 13:44:03;;;;;;;;;;;25.30;32.20;;;;;;5002155;28;19987;-56
2023/12/18 13:46:30;;;;;;;;;;;25.30;32.10;;;;;;5006210;28;19925;-57
2023/12/18 13:48:57;;;;;;;;;;;25.30;31.90;;;;;;5007222;28;19940;-57
2023/12/18 13:51:24;;;;;;;;;;;25.40;31.90;;;;;;5010188;28;19973;-62
2023/12/18 14:04:28;;;;;;;;;;;25.40;31.60;;;;;;5114451;23;19932;-56
2023/12/18 14:06:55;;;;;;;;;;;25.40;31.70;;;;;;5020697;28;19933;-54
2023/12/18 14:09:25;;;;;;;;;;;25.40;31.70;;;;;;5038026;28;19935;-59
2023/12/18 14:23:12;;;;;;;;;;;25.40;31.70;;;;;;5016569;28;20264;-60
2023/12/18 14:25:48;;;;;;;;;;;25.40;31.70;;;;;;4999398;28;19921;-58
2023/12/18 14:28:45;;;;;;;;;;;25.30;31.60;;;;;;5016451;28;20385;-60
2023/12/18 14:31:13;;;;;;;;;;;25.30;31.60;;;;;;5013635;28;20430;-62
2023/12/18 14:33:40;;;;;;;;;;;25.30;31.70;;;;;;5017843;28;20298;-61
2023/12/18 14:39:28;;;;;;;;;;;25.30;32.00;;;;;;5017052;28;19925;-61
2023/12/18 14:41:55;;;;;;;;;;;25.30;31.90;;;;;;5015827;28;19928;-53
2023/12/18 14:44:23;;;;;;;;;;;25.30;31.90;;;;;;5014808;28;19957;-57